createdAt,value
2023-01-01T00:00:20.957Z,6.20
2023-01-01T00:05:47.788Z,4.47
2023-01-01T00:10:52.733Z,5.00
2023-01-01T00:15:56.657Z,5.70
2023-01-01T00:21:05.605Z,4.90
2023-01-01T00:26:15.413Z,5.97
2023-01-01T00:31:22.493Z,5.87
2023-01-01T00:36:28.314Z,4.93
2023-01-01T00:41:32.804Z,4.63
2023-01-01T00:46:38.365Z,5.73
2023-01-01T00:51:47.701Z,4.43
2023-01-01T00:56:51.327Z,6.33
2023-01-01T01:02:03.550Z,5.33
2023-01-01T01:07:07.781Z,5.33
2023-01-01T01:12:17.521Z,5.27
2023-01-01T01:17:22.628Z,7.93
2023-01-01T01:22:28.917Z,9.90
2023-01-01T01:27:33.557Z,7.77
2023-01-01T01:38:09.120Z,8.90
2023-01-01T01:43:25.576Z,7.93
2023-01-01T01:48:30.462Z,8.27
2023-01-01T01:53:39.751Z,7.30
2023-01-01T01:58:43.433Z,7.03
2023-01-01T02:04:00.329Z,7.33
2023-01-01T02:09:07.370Z,6.67
2023-01-01T02:14:11.454Z,10.97
2023-01-01T02:19:33.235Z,6.73
2023-01-01T02:25:03.218Z,7.87
2023-01-01T02:30:10.113Z,5.83
2023-01-01T02:35:35.691Z,6.93
2023-01-01T02:40:45.366Z,7.50
2023-01-01T02:45:54.958Z,7.70
2023-01-01T02:51:03.294Z,6.53
2023-01-01T02:56:28.754Z,6.53
2023-01-01T03:01:50.426Z,5.57
2023-01-01T03:07:19.632Z,6.37
2023-01-01T03:12:47.594Z,6.30
2023-01-01T03:18:12.020Z,6.03
2023-01-01T03:23:27.951Z,5.50
2023-01-01T03:28:55.640Z,5.70
2023-01-01T03:34:11.138Z,4.23
2023-01-01T03:39:21.610Z,6.47
2023-01-01T03:44:44.713Z,6.20
2023-01-01T03:49:48.779Z,5.43
2023-01-01T03:55:21.727Z,10.50
2023-01-01T04:00:31.334Z,4.97
2023-01-01T04:05:41.865Z,8.10
2023-01-01T04:10:59.035Z,10.93
2023-01-01T04:16:02.953Z,6.37
2023-01-01T04:21:06.745Z,5.57
2023-01-01T04:26:15.371Z,6.20
2023-01-01T04:31:21.922Z,5.67
2023-01-01T04:36:25.924Z,5.03
2023-01-01T04:41:30.071Z,5.40
2023-01-01T04:46:33.826Z,7.17
2023-01-01T04:51:37.871Z,5.57
2023-01-01T04:56:41.675Z,6.13
2023-01-01T05:01:45.589Z,5.70
2023-01-01T05:06:49.046Z,7.73
2023-01-01T05:11:54.155Z,5.00
2023-01-01T05:16:57.687Z,3.70
2023-01-01T05:22:06.883Z,5.33
2023-01-01T05:27:14.085Z,8.07
2023-01-01T05:32:19.143Z,4.53
2023-01-01T07:11:17.259Z,7.77
2023-01-01T09:17:02.163Z,8.17
2023-01-01T09:22:15.123Z,5.37
2023-01-01T09:27:19.123Z,7.90
2023-01-01T09:32:24.340Z,7.10
2023-01-01T09:43:40.107Z,6.40
2023-01-01T10:08:04.335Z,10.83
2023-01-01T10:14:44.675Z,8.23
2023-01-01T10:33:16.684Z,6.13
2023-01-01T10:38:58.347Z,8.40
2023-01-01T10:46:17.455Z,9.13
2023-01-01T10:52:11.466Z,4.80
2023-01-01T10:57:00.183Z,8.37
2023-01-01T11:16:25.605Z,6.70
2023-01-01T11:27:34.777Z,5.57
2023-01-01T11:33:04.151Z,4.53
2023-01-01T11:39:01.243Z,6.93
2023-01-01T11:45:24.530Z,8.43
2023-01-01T11:50:34.732Z,9.07
2023-01-01T11:55:56.736Z,9.43
2023-01-01T12:01:40.052Z,7.37
2023-01-01T12:07:15.387Z,7.23
2023-01-01T12:12:46.055Z,6.73
2023-01-01T12:24:38.134Z,5.43
2023-01-01T12:36:27.227Z,8.30
2023-01-01T12:42:15.003Z,4.43
2023-01-01T13:01:07.215Z,5.67
2023-01-01T13:06:17.384Z,6.17
2023-01-01T13:12:33.655Z,7.73
2023-01-01T13:18:16.334Z,6.97
2023-01-01T13:23:46.464Z,7.60
2023-01-01T13:29:02.260Z,7.10
2023-01-01T13:35:11.850Z,5.47
2023-01-01T13:48:16.414Z,4.60
2023-01-01T14:13:40.844Z,9.07
2023-01-01T14:26:58.745Z,5.83
2023-01-01T15:15:34.607Z,6.00
2023-01-01T15:20:54.646Z,7.17
2023-01-01T15:26:08.095Z,6.27
2023-01-01T15:31:24.687Z,7.87
2023-01-01T16:02:33.402Z,8.23
2023-01-01T16:09:00.890Z,9.53
2023-01-01T16:20:21.845Z,8.33
2023-01-01T16:25:53.690Z,9.10
2023-01-01T16:31:01.987Z,10.03
2023-01-01T16:36:06.820Z,8.30
2023-01-01T16:41:35.929Z,10.43
2023-01-01T16:47:02.457Z,9.90
2023-01-01T16:52:14.796Z,9.93
2023-01-01T16:57:24.962Z,11.20
2023-01-01T17:02:32.208Z,6.13
2023-01-01T17:08:08.876Z,8.47
2023-01-01T17:13:27.064Z,8.20
2023-01-01T17:19:29.110Z,7.53
2023-01-01T17:24:45.981Z,9.57
2023-01-01T17:30:00.373Z,10.27
2023-01-01T17:35:33.274Z,9.53
2023-01-01T17:41:08.241Z,8.30
2023-01-01T17:46:34.510Z,9.33
2023-01-01T17:51:42.732Z,9.03
2023-01-01T17:56:54.872Z,9.40
2023-01-01T18:03:41.311Z,7.50
2023-01-01T18:22:31.563Z,9.03
2023-01-01T18:27:43.033Z,8.30
2023-01-01T18:32:59.370Z,11.73
2023-01-01T18:38:16.294Z,8.30
2023-01-01T18:43:28.468Z,9.83
2023-01-01T18:48:32.188Z,11.13
2023-01-01T18:53:37.506Z,8.67
2023-01-01T18:58:48.610Z,8.73
2023-01-01T19:03:59.844Z,10.67
2023-01-01T19:09:34.358Z,12.93
2023-01-01T19:21:24.152Z,7.40
2023-01-01T19:26:42.130Z,8.50
2023-01-01T19:31:50.996Z,9.13
2023-01-01T19:36:58.446Z,11.77
2023-01-01T19:42:05.903Z,8.80
2023-01-01T19:48:04.156Z,10.77
2023-01-01T19:59:19.500Z,9.67
2023-01-01T20:04:38.641Z,8.50
2023-01-01T20:09:57.154Z,10.10
2023-01-01T20:15:18.747Z,8.90
2023-01-01T20:20:33.134Z,8.53
2023-01-01T20:25:41.730Z,9.20
2023-01-01T20:31:04.747Z,9.17
2023-01-01T20:36:38.783Z,9.43
2023-01-01T20:41:55.416Z,10.03
2023-01-01T20:47:18.054Z,11.20
2023-01-01T20:52:29.553Z,13.33
2023-01-01T20:57:39.644Z,11.97
2023-01-01T21:03:03.226Z,13.30
2023-01-01T21:08:10.095Z,12.37
2023-01-01T21:13:18.632Z,11.57
2023-01-01T21:18:26.076Z,14.10
2023-01-01T21:23:32.631Z,12.70
2023-01-01T21:28:36.997Z,10.43
2023-01-01T21:33:48.132Z,9.83
2023-01-01T21:39:14.394Z,11.57
2023-01-01T21:44:41.822Z,15.03
2023-01-01T21:50:20.676Z,12.33
2023-01-01T21:56:14.575Z,15.13
2023-01-01T22:02:35.631Z,13.60
2023-01-01T22:07:59.617Z,17.57
2023-01-01T22:13:15.779Z,16.80
2023-01-01T22:18:24.805Z,12.80
2023-01-01T22:23:34.416Z,16.63
2023-01-01T22:28:43.749Z,16.90
2023-01-01T22:33:49.646Z,18.90
2023-01-01T22:38:58.166Z,15.40
2023-01-01T22:44:04.705Z,18.27
2023-01-01T22:49:31.600Z,27.70
2023-01-01T23:01:55.262Z,24.17
2023-01-01T23:07:44.510Z,25.70
2023-01-01T23:13:35.876Z,23.90
2023-01-01T23:18:52.743Z,20.77
2023-01-01T23:24:22.578Z,21.40
2023-01-01T23:29:36.875Z,67.50
2023-01-01T23:34:47.616Z,35.73
2023-01-01T23:39:55.945Z,30.97
2023-01-01T23:44:59.947Z,35.00
2023-01-01T23:50:04.250Z,36.27
2023-01-01T23:55:08.996Z,28.63
